Eiwa Maru — JG5742 — position and weather

sailwx.info

Track history (hours):
 
Tides and Currents Weather Stations Pressure Air Temp Water Temp Dewpoint Dewpoint Depression Visibility Wind Speed Wind Dir Waves Ship Positions

Eiwa Maru

Last reported at 2017-Mar-26 06:31 UTC. Time now 2017-Mar-27 22:19 UTC.
Position N 34°02' E 134°60'.

Length 80 m; draft 5 m.

Type: Ship (hazmat cat A). MMSI: 431101045.

Date/timePositionNaut miles runAvg speedWind from/ knotsBaromVisibWave heightAir tempDewpointWater temp
2017-Mar-26 06:31N 34°02' E 134°60'1314.1
2017-Mar-26 05:33N 34°15' E 134°59'1413.0
2017-Mar-26 04:29N 34°26' E 135°09'1212.7
2017-Mar-26 03:32N 34°35' E 135°20'5 4.9
2017-Mar-26 02:33N 34°34' E 135°26'0 0.0
2017-Mar-26 01:33N 34°34' E 135°26'0 0.0
2017-Mar-26 00:33N 34°34' E 135°26'0 0.0
2017-Mar-25 23:33N 34°34' E 135°26'1 0.7
2017-Mar-25 22:33N 34°35' E 135°25'6 5.7
2017-Mar-25 21:33N 34°35' E 135°18'0 0.0
2017-Mar-25 20:33N 34°35' E 135°18'0 0.0
2017-Mar-25 19:33N 34°35' E 135°18'0 0.0
2017-Mar-25 18:33N 34°35' E 135°18'8 7.8
2017-Mar-25 17:33N 34°35' E 135°09'12912.8
2017-Mar-25 07:28N 33°53' E 132°42'2 1.8
2017-Mar-25 06:33N 33°51' E 132°42'0 0.0
2017-Mar-25 05:33N 33°51' E 132°42'0 0.0
2017-Mar-25 04:33N 33°51' E 132°42'0 0.0
2017-Mar-25 03:33N 33°51' E 132°42'0 0.0
2017-Mar-25 02:33N 33°51' E 132°42'0 0.0
2017-Mar-25 01:33N 33°51' E 132°42'0 0.0
2017-Mar-25 00:33N 33°51' E 132°42'0 0.0
2017-Mar-24 23:33N 33°51' E 132°42'1 0.7
2017-Mar-24 22:33N 33°52' E 132°42'0 0.0
2017-Mar-24 21:33N 33°52' E 132°42'0 0.0
2017-Mar-24 20:33N 33°52' E 132°42'0 0.0
2017-Mar-24 19:33N 33°52' E 132°42'0 0.0
2017-Mar-24 18:33N 33°52' E 132°42'0 0.0
2017-Mar-24 17:33N 33°52' E 132°42'0 0.0
2017-Mar-24 16:33N 33°52' E 132°42'0 0.0
2017-Mar-24 15:33N 33°52' E 132°42'0 0.0
2017-Mar-24 14:33N 33°52' E 132°42'0 0.0
2017-Mar-24 13:33N 33°52' E 132°42'0 0.0
2017-Mar-24 12:33N 33°52' E 132°42'0 0.0
2017-Mar-24 11:33N 33°52' E 132°42'0 0.0
2017-Mar-24 10:33N 33°52' E 132°42'0 0.0
2017-Mar-24 09:33N 33°52' E 132°42'0 0.0
2017-Mar-24 08:33N 33°52' E 132°42'9 8.4
2017-Mar-24 07:33N 34°00' E 132°45'119 5.2
2017-Mar-23 08:33N 34°37' E 135°02'1312.6
2017-Mar-23 07:33N 34°36' E 135°17'7 3.6
2017-Mar-23 05:30N 34°34' E 135°26'0 0.0
2017-Mar-23 04:34N 34°34' E 135°26'0 0.0
2017-Mar-23 03:33N 34°34' E 135°26'0 0.0
2017-Mar-23 02:33N 34°34' E 135°26'0 0.0
2017-Mar-23 01:31N 34°34' E 135°26'1 0.8
2017-Mar-23 00:32N 34°35' E 135°25'6 5.6
2017-Mar-22 23:33N 34°36' E 135°19'0 0.1
2017-Mar-22 22:33N 34°36' E 135°19'0 0.0
2017-Mar-22 21:31N 34°36' E 135°19'0 0.0
2017-Mar-22 20:28N 34°36' E 135°19'0 0.0
2017-Mar-22 19:33N 34°36' E 135°19'0 0.0
2017-Mar-22 18:33N 34°36' E 135°19'0 0.0
2017-Mar-22 17:32N 34°36' E 135°18'8 8.1
2017-Mar-22 16:33N 34°35' E 135°09'13012.9
2017-Mar-22 06:27N 34°04' E 132°36'0 0.0
2017-Mar-20 19:33N 34°03' E 132°36'34310.7
2017-Mar-19 11:32N 34°60' E 139°27'1212.6
2017-Mar-19 10:33N 35°06' E 139°40'1111.5
2017-Mar-19 09:33N 35°17' E 139°45'1010.2
2017-Mar-19 08:33N 35°27' E 139°47'14 1.7
2017-Mar-19 00:30N 35°33' E 140°02'1 1.1
2017-Mar-18 23:25N 35°34' E 140°03'3 3.5
2017-Mar-18 22:33N 35°36' E 140°06'0 0.0
2017-Mar-18 21:04N 35°36' E 140°06'0 0.0
2017-Mar-18 20:30N 35°36' E 140°06'0 0.0
2017-Mar-18 19:25N 35°36' E 140°06'0 0.0
2017-Mar-18 18:28N 35°36' E 140°06'5 0.2
2017-Mar-17 22:07N 35°33' E 140°02'0 0.1
2017-Mar-17 21:33N 35°33' E 140°02'0 0.0
2017-Mar-17 20:33N 35°33' E 140°02'0 0.0
2017-Mar-17 19:27N 35°33' E 140°02'0 0.0
2017-Mar-17 18:33N 35°33' E 140°02'0 0.0
2017-Mar-17 17:30N 35°33' E 140°02'0 0.1
2017-Mar-17 16:33N 35°33' E 140°02'0 0.0
2017-Mar-17 15:32N 35°33' E 140°02'0 0.1
2017-Mar-17 14:30N 35°33' E 140°02'1111.9
2017-Mar-17 13:33N 35°27' E 139°50'1111.1
2017-Mar-17 12:33N 35°17' E 139°45'1212.4
2017-Mar-17 11:33N 35°04' E 139°45'15 0.5
2017-Mar-16 08:23N 34°59' E 139°28'1112.9
2017-Mar-16 07:33N 35°04' E 139°39'1212.1
2017-Mar-16 06:33N 35°15' E 139°46'  
Track history (hours):
 
Tides and Currents Weather Stations Pressure Air Temp Water Temp Dewpoint Dewpoint Depression Visibility Wind Speed Wind Dir Waves Ship Positions

Eiwa Maru

Last reported at 2017-Mar-26 06:31 UTC. Time now 2017-Mar-27 22:19 UTC.
Position N 34°02' E 134°60'.

Length 80 m; draft 5 m.

Type: Ship (hazmat cat A). MMSI: 431101045.

Date/timePositionNaut miles runAvg speedWind from/ knotsBaromVisibWave heightAir tempDewpointWater temp
2017-Mar-26 06:31N 34°02' E 134°60'1314.1
2017-Mar-26 05:33N 34°15' E 134°59'1413.0
2017-Mar-26 04:29N 34°26' E 135°09'1212.7
2017-Mar-26 03:32N 34°35' E 135°20'5 4.9
2017-Mar-26 02:33N 34°34' E 135°26'0 0.0
2017-Mar-26 01:33N 34°34' E 135°26'0 0.0
2017-Mar-26 00:33N 34°34' E 135°26'0 0.0
2017-Mar-25 23:33N 34°34' E 135°26'1 0.7
2017-Mar-25 22:33N 34°35' E 135°25'6 5.7
2017-Mar-25 21:33N 34°35' E 135°18'0 0.0
2017-Mar-25 20:33N 34°35' E 135°18'0 0.0
2017-Mar-25 19:33N 34°35' E 135°18'0 0.0
2017-Mar-25 18:33N 34°35' E 135°18'8 7.8
2017-Mar-25 17:33N 34°35' E 135°09'12912.8
2017-Mar-25 07:28N 33°53' E 132°42'2 1.8
2017-Mar-25 06:33N 33°51' E 132°42'0 0.0
2017-Mar-25 05:33N 33°51' E 132°42'0 0.0
2017-Mar-25 04:33N 33°51' E 132°42'0 0.0
2017-Mar-25 03:33N 33°51' E 132°42'0 0.0
2017-Mar-25 02:33N 33°51' E 132°42'0 0.0
2017-Mar-25 01:33N 33°51' E 132°42'0 0.0
2017-Mar-25 00:33N 33°51' E 132°42'0 0.0
2017-Mar-24 23:33N 33°51' E 132°42'1 0.7
2017-Mar-24 22:33N 33°52' E 132°42'0 0.0
2017-Mar-24 21:33N 33°52' E 132°42'0 0.0
2017-Mar-24 20:33N 33°52' E 132°42'0 0.0
2017-Mar-24 19:33N 33°52' E 132°42'0 0.0
2017-Mar-24 18:33N 33°52' E 132°42'0 0.0
2017-Mar-24 17:33N 33°52' E 132°42'0 0.0
2017-Mar-24 16:33N 33°52' E 132°42'0 0.0
2017-Mar-24 15:33N 33°52' E 132°42'0 0.0
2017-Mar-24 14:33N 33°52' E 132°42'0 0.0
2017-Mar-24 13:33N 33°52' E 132°42'0 0.0
2017-Mar-24 12:33N 33°52' E 132°42'0 0.0
2017-Mar-24 11:33N 33°52' E 132°42'0 0.0
2017-Mar-24 10:33N 33°52' E 132°42'0 0.0
2017-Mar-24 09:33N 33°52' E 132°42'0 0.0
2017-Mar-24 08:33N 33°52' E 132°42'9 8.4
2017-Mar-24 07:33N 34°00' E 132°45'119 5.2
2017-Mar-23 08:33N 34°37' E 135°02'1312.6
2017-Mar-23 07:33N 34°36' E 135°17'7 3.6
2017-Mar-23 05:30N 34°34' E 135°26'0 0.0
2017-Mar-23 04:34N 34°34' E 135°26'0 0.0
2017-Mar-23 03:33N 34°34' E 135°26'0 0.0
2017-Mar-23 02:33N 34°34' E 135°26'0 0.0
2017-Mar-23 01:31N 34°34' E 135°26'1 0.8
2017-Mar-23 00:32N 34°35' E 135°25'6 5.6
2017-Mar-22 23:33N 34°36' E 135°19'0 0.1
2017-Mar-22 22:33N 34°36' E 135°19'0 0.0
2017-Mar-22 21:31N 34°36' E 135°19'0 0.0
2017-Mar-22 20:28N 34°36' E 135°19'0 0.0
2017-Mar-22 19:33N 34°36' E 135°19'0 0.0
2017-Mar-22 18:33N 34°36' E 135°19'0 0.0
2017-Mar-22 17:32N 34°36' E 135°18'8 8.1
2017-Mar-22 16:33N 34°35' E 135°09'13012.9
2017-Mar-22 06:27N 34°04' E 132°36'0 0.0
2017-Mar-20 19:33N 34°03' E 132°36'34310.7
2017-Mar-19 11:32N 34°60' E 139°27'1212.6
2017-Mar-19 10:33N 35°06' E 139°40'1111.5
2017-Mar-19 09:33N 35°17' E 139°45'1010.2
2017-Mar-19 08:33N 35°27' E 139°47'14 1.7
2017-Mar-19 00:30N 35°33' E 140°02'1 1.1
2017-Mar-18 23:25N 35°34' E 140°03'3 3.5
2017-Mar-18 22:33N 35°36' E 140°06'0 0.0
2017-Mar-18 21:04N 35°36' E 140°06'0 0.0
2017-Mar-18 20:30N 35°36' E 140°06'0 0.0
2017-Mar-18 19:25N 35°36' E 140°06'0 0.0
2017-Mar-18 18:28N 35°36' E 140°06'5 0.2
2017-Mar-17 22:07N 35°33' E 140°02'0 0.1
2017-Mar-17 21:33N 35°33' E 140°02'0 0.0
2017-Mar-17 20:33N 35°33' E 140°02'0 0.0
2017-Mar-17 19:27N 35°33' E 140°02'0 0.0
2017-Mar-17 18:33N 35°33' E 140°02'0 0.0
2017-Mar-17 17:30N 35°33' E 140°02'0 0.1
2017-Mar-17 16:33N 35°33' E 140°02'0 0.0
2017-Mar-17 15:32N 35°33' E 140°02'0 0.1
2017-Mar-17 14:30N 35°33' E 140°02'1111.9
2017-Mar-17 13:33N 35°27' E 139°50'1111.1
2017-Mar-17 12:33N 35°17' E 139°45'1212.4
2017-Mar-17 11:33N 35°04' E 139°45'15 0.5
2017-Mar-16 08:23N 34°59' E 139°28'1112.9
2017-Mar-16 07:33N 35°04' E 139°39'1212.1
2017-Mar-16 06:33N 35°15' E 139°46'  

Dump ship's entire track history